Time;durP1;ratioP1;P1;durP2;ratioP2;P2;SDS_P1;SDS_P2;PMS_P1;PMS_P2;Temp;Humidity;BMP_temperature;BMP_pressure;BME280_temperature;BME280_humidity;BME280_pressure;Samples;Min_cycle;Max_cycle;Signal;HPM_P1;HPM_P2
2021/07/25 00:00:14;;;;;;;27.13;14.05;;;17.00;99.90;;;;;;5078172;28;20162;-86
2021/07/25 00:02:40;;;;;;;26.92;14.32;;;17.00;99.90;;;;;;5078416;28;20052;-86
2021/07/25 00:05:08;;;;;;;25.23;13.43;;;17.60;99.90;;;;;;5095987;28;20111;-87
2021/07/25 00:07:34;;;;;;;31.55;15.68;;;16.90;99.90;;;;;;5080877;28;20021;-87
2021/07/25 00:10:04;;;;;;;28.70;15.10;;;16.90;99.90;;;;;;5101212;28;20024;-87
2021/07/25 00:12:30;;;;;;;26.08;14.68;;;17.00;99.90;;;;;;5113124;28;20441;-87
2021/07/25 00:14:57;;;;;;;32.28;17.38;;;18.60;99.90;;;;;;5079087;28;20024;-86
2021/07/25 00:17:22;;;;;;;29.52;15.45;;;16.90;99.90;;;;;;5079632;28;20016;-86
2021/07/25 00:19:48;;;;;;;30.77;16.80;;;16.90;99.90;;;;;;5079275;28;20080;-86
2021/07/25 00:22:14;;;;;;;28.70;16.25;;;16.90;99.90;;;;;;5091269;28;20032;-86
2021/07/25 00:24:50;;;;;;;35.13;17.65;;;17.00;99.90;;;;;;5100251;28;20433;-88
2021/07/25 00:27:16;;;;;;;32.53;17.10;;;19.00;99.90;;;;;;5092909;28;20024;-88
2021/07/25 00:29:41;;;;;;;34.90;17.13;;;18.80;99.90;;;;;;5087388;28;20054;-87
2021/07/25 00:32:10;;;;;;;36.58;17.50;;;18.80;99.90;;;;;;5095703;28;20019;-87
2021/07/25 00:34:36;;;;;;;36.58;17.88;;;19.60;99.90;;;;;;5106659;28;20028;-87
2021/07/25 00:37:02;;;;;;;35.10;18.13;;;17.10;99.90;;;;;;5106616;28;20489;-87
2021/07/25 00:39:30;;;;;;;38.85;19.73;;;17.20;99.90;;;;;;5091275;28;20020;-87
2021/07/25 00:41:56;;;;;;;37.65;18.38;;;19.80;99.90;;;;;;5100760;28;20023;-87
2021/07/25 00:44:21;;;;;;;38.03;18.63;;;18.50;99.90;;;;;;5104897;28;20023;-88
2021/07/25 00:46:56;;;;;;;41.33;20.30;;;17.30;99.90;;;;;;5122578;28;20026;-87
2021/07/25 00:49:22;;;;;;;35.97;18.33;;;17.10;99.90;;;;;;5091792;28;20045;-87
2021/07/25 00:51:47;;;;;;;43.92;19.02;;;17.20;99.90;;;;;;5083509;28;20028;-87
2021/07/25 00:54:13;;;;;;;35.80;18.65;;;17.30;99.90;;;;;;5105255;28;20024;-87
2021/07/25 00:56:40;;;;;;;41.17;19.25;;;19.90;99.90;;;;;;5119942;28;20069;-87
2021/07/25 00:59:06;;;;;;;38.50;18.20;;;17.40;99.90;;;;;;5122229;28;20020;-88
2021/07/25 01:01:31;;;;;;;33.78;17.60;;;17.20;99.90;;;;;;5141384;28;20035;-88
2021/07/25 01:04:22;;;;;;;36.72;18.08;;;17.30;99.90;;;;;;5122432;28;20091;-88
2021/07/25 01:06:50;;;;;;;36.75;18.83;;;17.30;99.90;;;;;;5120303;28;20027;-88
2021/07/25 01:09:28;;;;;;;44.63;20.33;;;17.40;99.90;;;;;;5118985;28;20027;-88
2021/07/25 01:11:57;;;;;;;38.85;18.45;;;20.30;99.90;;;;;;5115927;28;20119;-89
2021/07/25 01:14:29;;;;;;;37.38;18.20;;;17.50;99.90;;;;;;5116897;28;20110;-87
2021/07/25 01:17:27;;;;;;;36.38;18.67;;;17.50;99.90;;;;;;5117118;28;20024;-89
2021/07/25 01:19:57;;;;;;;38.28;17.13;;;17.50;99.90;;;;;;5107420;28;20027;-88
2021/07/25 01:22:24;;;;;;;36.90;17.73;;;19.40;99.90;;;;;;5105562;28;20027;-88
2021/07/25 01:24:51;;;;;;;38.83;18.77;;;17.70;99.90;;;;;;5102064;28;20023;-89
2021/07/25 01:27:30;;;;;;;41.10;18.00;;;17.50;99.90;;;;;;5120330;28;20110;-88
2021/07/25 01:29:58;;;;;;;38.55;18.63;;;17.30;99.90;;;;;;5102719;28;20184;-87
2021/07/25 01:32:26;;;;;;;38.92;18.52;;;17.40;99.90;;;;;;5103688;28;20061;-87
2021/07/25 01:34:54;;;;;;;38.55;18.33;;;17.30;99.90;;;;;;5104126;28;20034;-87
2021/07/25 01:37:20;;;;;;;34.05;17.33;;;19.90;99.90;;;;;;5105401;28;20023;-87
2021/07/25 01:39:46;;;;;;;36.65;18.00;;;20.00;99.90;;;;;;5101635;28;20396;-88
2021/07/25 01:42:12;;;;;;;36.03;18.10;;;17.40;99.90;;;;;;5122124;28;20038;-88
2021/07/25 01:44:38;;;;;;;39.40;19.90;;;17.40;99.90;;;;;;5103388;28;20095;-87
2021/07/25 01:47:04;;;;;;;36.17;17.60;;;17.40;99.90;;;;;;5097619;28;20061;-88
2021/07/25 01:49:29;;;;;;;35.58;17.38;;;17.40;99.90;;;;;;5080438;28;20488;-88
2021/07/25 01:51:55;;;;;;;35.05;17.85;;;18.30;99.90;;;;;;5080451;28;20031;-88
2021/07/25 01:54:21;;;;;;;35.92;17.10;;;17.40;99.90;;;;;;5081458;28;20087;-88
2021/07/25 01:56:46;;;;;;;34.03;17.80;;;18.40;99.90;;;;;;5101078;28;20028;-88
2021/07/25 01:59:12;;;;;;;36.45;16.75;;;20.20;99.90;;;;;;5100943;28;20389;-87
2021/07/25 02:01:37;;;;;;;34.80;17.45;;;17.30;99.90;;;;;;5119876;28;20028;-86
2021/07/25 02:04:03;;;;;;;39.17;18.02;;;20.00;99.90;;;;;;5099338;28;20016;-86
2021/07/25 02:06:29;;;;;;;32.17;17.20;;;17.30;99.90;;;;;;5083341;28;20024;-88
2021/07/25 02:08:54;;;;;;;36.40;17.63;;;17.40;99.90;;;;;;5082568;28;20488;-87
2021/07/25 02:11:20;;;;;;;39.38;19.08;;;16.80;99.90;;;;;;5080690;28;20028;-87
2021/07/25 02:13:46;;;;;;;41.97;19.20;;;18.90;99.90;;;;;;5098795;28;20380;-87
2021/07/25 02:16:11;;;;;;;39.25;19.27;;;16.60;99.90;;;;;;5103978;28;20027;-86
2021/07/25 02:18:37;;;;;;;38.35;19.27;;;17.00;99.90;;;;;;5099973;28;20032;-87
2021/07/25 02:21:03;;;;;;;35.47;18.10;;;20.40;99.90;;;;;;5094882;28;20474;-87
2021/07/25 02:24:06;;;;;;;39.42;19.02;;;19.70;99.90;;;;;;5079328;28;20110;-87
2021/07/25 02:26:31;;;;;;;37.90;18.35;;;17.50;99.90;;;;;;5102408;28;20023;-87
2021/07/25 02:28:57;;;;;;;39.03;19.35;;;17.10;99.90;;;;;;5098752;28;20016;-89
2021/07/25 02:31:23;;;;;;;42.25;21.05;;;17.20;99.90;;;;;;5094493;28;20473;-86
2021/07/25 02:33:48;;;;;;;45.50;21.63;;;16.90;99.90;;;;;;5083826;28;20115;-86
2021/07/25 02:36:14;;;;;;;47.25;20.95;;;17.30;99.90;;;;;;5092535;28;20016;-86
2021/07/25 02:38:39;;;;;;;42.05;20.88;;;17.10;99.90;;;;;;5103216;28;20434;-86
2021/07/25 02:41:05;;;;;;;45.42;19.92;;;18.10;99.90;;;;;;5102139;28;20028;-86
2021/07/25 02:43:31;;;;;;;40.85;19.65;;;19.70;99.90;;;;;;5120631;28;20582;-86
2021/07/25 02:45:57;;;;;;;44.70;21.83;;;19.40;99.90;;;;;;5097797;28;20076;-85
2021/07/25 02:48:23;;;;;;;40.88;19.08;;;17.20;99.90;;;;;;5102153;28;20019;-85
2021/07/25 02:50:48;;;;;;;41.67;20.38;;;17.10;99.90;;;;;;5101297;28;20049;-86
2021/07/25 02:53:14;;;;;;;40.58;19.58;;;17.20;99.90;;;;;;5101582;28;20393;-86
2021/07/25 02:55:40;;;;;;;43.25;19.88;;;17.10;99.90;;;;;;5097694;28;20448;-86
2021/07/25 02:58:05;;;;;;;40.28;20.83;;;17.00;99.90;;;;;;5089310;28;20031;-86
2021/07/25 03:00:31;;;;;;;46.88;21.75;;;16.80;99.90;;;;;;5101001;28;20027;-87
2021/07/25 03:02:57;;;;;;;45.55;21.27;;;17.00;99.90;;;;;;5097763;28;20036;-86
2021/07/25 03:05:23;;;;;;;46.47;23.33;;;17.10;99.90;;;;;;5105433;28;20032;-88
2021/07/25 03:07:49;;;;;;;40.55;21.60;;;16.90;99.90;;;;;;5080090;28;20020;-87
2021/07/25 03:10:15;;;;;;;46.85;21.60;;;16.80;99.90;;;;;;5097496;28;20024;-87
2021/07/25 03:12:40;;;;;;;42.00;21.02;;;19.30;99.90;;;;;;5079155;28;20397;-88
2021/07/25 03:15:07;;;;;;;45.92;21.60;;;16.90;99.90;;;;;;5079355;28;20020;-87
2021/07/25 03:17:32;;;;;;;42.58;22.05;;;17.00;99.90;;;;;;5076010;28;20035;-86
2021/07/25 03:19:58;;;;;;;42.00;20.70;;;16.80;99.90;;;;;;5100274;28;20023;-87
2021/07/25 03:22:23;;;;;;;40.50;19.90;;;16.90;99.90;;;;;;5099805;28;20139;-86
2021/07/25 03:24:49;;;;;;;39.55;20.98;;;17.10;99.90;;;;;;5120376;28;20012;-85
2021/07/25 03:27:15;;;;;;;41.60;19.73;;;18.60;99.90;;;;;;5099921;28;20019;-85
2021/07/25 03:29:40;;;;;;;43.97;20.88;;;19.00;99.90;;;;;;5119175;28;20024;-85
2021/07/25 03:32:06;;;;;;;44.08;21.58;;;16.60;99.90;;;;;;5100794;28;20027;-85
2021/07/25 03:34:33;;;;;;;43.22;21.27;;;17.70;99.90;;;;;;5100545;28;20030;-85
2021/07/25 03:37:02;;;;;;;42.40;20.70;;;17.90;99.90;;;;;;5086388;28;20050;-86
2021/07/25 03:39:29;;;;;;;41.78;20.92;;;16.70;99.90;;;;;;5080778;28;20016;-85
2021/07/25 03:41:55;;;;;;;42.03;21.10;;;16.70;99.90;;;;;;5082010;28;20028;-85
2021/07/25 03:44:21;;;;;;;44.35;21.85;;;16.70;99.90;;;;;;5079968;28;20080;-85
2021/07/25 03:46:47;;;;;;;45.88;21.77;;;16.60;99.90;;;;;;5108160;28;20429;-85
2021/07/25 03:49:12;;;;;;;44.97;22.52;;;16.70;99.90;;;;;;5118725;28;20016;-85
2021/07/25 03:51:38;;;;;;;42.08;20.92;;;16.80;99.90;;;;;;5099996;28;20168;-85
2021/07/25 03:54:07;;;;;;;42.10;20.80;;;19.20;99.90;;;;;;5098229;28;20024;-84
2021/07/25 03:56:35;;;;;;;37.78;21.15;;;16.90;99.90;;;;;;5080952;28;20396;-84
2021/07/25 03:59:00;;;;;;;42.80;21.17;;;16.70;99.90;;;;;;5080487;28;20027;-84
2021/07/25 04:01:26;;;;;;;44.83;21.80;;;18.90;99.90;;;;;;5081072;28;20107;-85
2021/07/25 04:03:51;;;;;;;43.85;21.92;;;17.00;99.90;;;;;;5102636;28;20077;-86
2021/07/25 04:06:17;;;;;;;43.53;21.50;;;17.00;99.90;;;;;;5083434;28;20489;-86
2021/07/25 04:08:45;;;;;;;43.15;20.77;;;17.00;99.90;;;;;;5089562;28;20020;-86
2021/07/25 04:11:20;;;;;;;43.95;20.80;;;17.00;99.90;;;;;;5121641;28;20016;-86
2021/07/25 04:13:47;;;;;;;39.83;20.10;;;17.10;99.90;;;;;;5121239;28;20035;-86
2021/07/25 04:16:13;;;;;;;44.80;21.55;;;17.10;99.90;;;;;;5121247;28;20024;-86
2021/07/25 04:18:39;;;;;;;46.72;20.42;;;17.20;99.90;;;;;;5121444;28;20492;-86
2021/07/25 04:21:04;;;;;;;39.40;20.65;;;17.10;99.90;;;;;;5103100;28;20022;-87
2021/07/25 04:23:30;;;;;;;40.38;19.67;;;17.10;99.90;;;;;;5095957;28;20016;-86
2021/07/25 04:25:56;;;;;;;41.20;20.25;;;17.10;99.90;;;;;;5083244;28;20091;-86
2021/07/25 04:28:22;;;;;;;39.13;18.60;;;17.20;99.90;;;;;;5085960;28;20505;-86
2021/07/25 04:30:48;;;;;;;39.75;19.80;;;17.20;99.90;;;;;;5103232;28;20034;-87
2021/07/25 04:33:17;;;;;;;35.70;17.92;;;17.30;99.90;;;;;;5102491;28;20012;-86
2021/07/25 04:35:43;;;;;;;37.03;19.02;;;17.10;99.90;;;;;;5120737;28;20024;-86
2021/07/25 04:38:09;;;;;;;34.63;18.25;;;17.10;99.90;;;;;;5101262;28;20026;-86
2021/07/25 04:40:36;;;;;;;34.08;17.63;;;17.20;99.90;;;;;;5102498;28;20032;-86
2021/07/25 04:43:03;;;;;;;37.70;17.90;;;17.20;99.90;;;;;;5102372;28;20023;-86
2021/07/25 04:45:41;;;;;;;35.33;17.57;;;17.20;99.90;;;;;;5102540;28;20042;-85
2021/07/25 04:48:22;;;;;;;34.42;17.38;;;17.30;99.90;;;;;;5099723;28;20081;-87
2021/07/25 04:50:51;;;;;;;32.35;17.13;;;17.30;99.90;;;;;;5087672;28;20084;-87
2021/07/25 04:53:24;;;;;;;30.98;15.95;;;17.30;99.90;;;;;;5113728;28;20075;-86
2021/07/25 04:55:57;;;;;;;33.55;14.98;;;17.40;99.90;;;;;;5081166;28;20055;-86
2021/07/25 04:58:29;;;;;;;32.83;15.55;;;17.60;99.90;;;;;;5084658;28;20027;-86
2021/07/25 05:00:58;;;;;;;33.60;15.07;;;17.70;99.90;;;;;;5119393;28;20022;-86
2021/07/25 05:03:26;;;;;;;25.65;13.95;;;17.70;99.90;;;;;;5108522;28;20020;-87
2021/07/25 05:05:55;;;;;;;27.92;13.43;;;18.50;99.90;;;;;;5119526;28;20036;-86
2021/07/25 05:08:20;;;;;;;26.08;13.13;;;17.90;99.90;;;;;;5097998;28;20028;-86
2021/07/25 05:10:48;;;;;;;23.30;12.07;;;18.00;99.90;;;;;;5096651;28;20035;-86
2021/07/25 05:13:17;;;;;;;24.05;12.30;;;18.10;99.90;;;;;;5091713;28;20019;-86
2021/07/25 05:15:46;;;;;;;23.27;11.18;;;18.10;99.90;;;;;;5121608;28;20027;-86
2021/07/25 05:18:34;;;;;;;21.80;11.07;;;18.20;99.90;;;;;;5122189;28;20028;-86
2021/07/25 05:21:28;;;;;;;20.73;10.10;;;18.30;99.90;;;;;;5103169;28;20032;-86
2021/07/25 05:23:57;;;;;;;19.65;9.80;;;18.30;99.90;;;;;;5090097;28;20061;-86
2021/07/25 05:26:26;;;;;;;24.40;10.55;;;18.40;99.90;;;;;;5083752;28;20031;-86
2021/07/25 05:28:57;;;;;;;19.50;9.98;;;18.40;99.90;;;;;;5080902;28;20451;-86
2021/07/25 05:31:31;;;;;;;17.15;9.55;;;18.50;99.90;;;;;;5099658;28;20027;-87
2021/07/25 05:33:58;;;;;;;17.83;9.13;;;18.60;99.90;;;;;;5081358;28;20020;-86
2021/07/25 05:36:24;;;;;;;18.55;9.43;;;18.60;99.90;;;;;;5104401;28;20062;-86
2021/07/25 05:38:49;;;;;;;17.30;8.57;;;18.60;99.90;;;;;;5106942;28;20019;-87
2021/07/25 05:41:15;;;;;;;22.30;9.38;;;18.60;99.90;;;;;;5105889;28;21963;-86
2021/07/25 05:43:41;;;;;;;20.38;9.45;;;18.70;99.90;;;;;;5095373;28;20024;-86
2021/07/25 05:46:06;;;;;;;17.67;8.50;;;18.80;99.90;;;;;;5084909;28;20393;-85
2021/07/25 05:48:32;;;;;;;15.77;8.20;;;19.30;99.90;;;;;;5083826;28;20058;-85
2021/07/25 05:50:59;;;;;;;17.52;8.00;;;19.00;99.90;;;;;;5102070;28;20028;-86
2021/07/25 05:53:25;;;;;;;13.55;7.53;;;19.80;99.90;;;;;;5089891;28;20035;-87
2021/07/25 05:55:50;;;;;;;12.77;6.35;;;20.50;99.90;;;;;;5103682;28;20020;-86
2021/07/25 05:58:16;;;;;;;15.13;5.68;;;21.00;99.90;;;;;;5115590;28;20052;-88
2021/07/25 06:00:42;;;;;;;10.45;5.22;;;19.30;99.90;;;;;;5083631;28;20028;-86
2021/07/25 06:03:07;;;;;;;13.07;5.63;;;19.70;99.90;;;;;;5086289;28;20019;-87
2021/07/25 06:05:35;;;;;;;19.33;5.53;;;19.50;99.90;;;;;;5102633;28;20028;-87
2021/07/25 06:08:02;;;;;;;10.13;5.05;;;19.20;99.90;;;;;;5102528;28;20032;-86
2021/07/25 06:10:30;;;;;;;8.50;4.70;;;18.20;99.90;;;;;;5103122;28;20377;-86
2021/07/25 06:12:56;;;;;;;9.73;4.55;;;19.50;99.90;;;;;;5098153;28;20051;-86
2021/07/25 06:15:23;;;;;;;10.63;4.93;;;20.40;99.90;;;;;;5100592;28;20032;-88
2021/07/25 06:17:49;;;;;;;10.68;4.40;;;19.20;99.90;;;;;;5089995;28;20051;-87
2021/07/25 06:20:15;;;;;;;9.35;4.75;;;22.10;99.90;;;;;;5101723;28;20419;-88
2021/07/25 06:22:43;;;;;;;8.20;4.65;;;19.30;99.90;;;;;;5101697;28;20068;-88
2021/07/25 06:25:11;;;;;;;7.68;4.47;;;22.10;99.90;;;;;;5099999;28;20469;-87
2021/07/25 06:27:37;;;;;;;10.75;4.97;;;19.60;99.90;;;;;;5083541;28;20117;-87
2021/07/25 06:30:06;;;;;;;6.93;3.33;;;19.70;99.90;;;;;;5091370;28;20020;-87
2021/07/25 06:32:52;;;;;;;8.98;4.47;;;19.80;99.90;;;;;;5101821;28;20028;-86
2021/07/25 06:35:18;;;;;;;8.73;4.50;;;19.90;99.90;;;;;;5092769;28;20032;-86
2021/07/25 06:37:43;;;;;;;9.35;3.75;;;20.00;99.90;;;;;;5119996;28;20027;-89
2021/07/25 06:40:09;;;;;;;7.97;3.85;;;19.70;99.90;;;;;;5100292;28;20553;-87
2021/07/25 06:42:35;;;;;;;7.78;3.80;;;20.10;99.90;;;;;;5101070;28;20403;-86
2021/07/25 06:45:00;;;;;;;8.80;4.15;;;20.20;99.90;;;;;;5118654;28;20065;-87
2021/07/25 06:47:28;;;;;;;9.98;3.60;;;20.40;99.90;;;;;;5100228;28;20358;-87
2021/07/25 06:49:54;;;;;;;10.70;3.75;;;21.30;99.90;;;;;;5091688;28;20013;-86
2021/07/25 06:52:19;;;;;;;7.03;3.17;;;23.10;99.90;;;;;;5080712;28;20028;-87
2021/07/25 06:54:45;;;;;;;9.60;3.78;;;20.70;99.90;;;;;;5099514;28;20496;-87
2021/07/25 06:57:10;;;;;;;7.97;3.28;;;20.60;99.90;;;;;;5100295;28;20023;-88
2021/07/25 06:59:36;;;;;;;5.32;2.78;;;20.70;99.90;;;;;;5092724;28;20024;-86
2021/07/25 07:02:02;;;;;;;9.50;3.15;;;21.00;99.90;;;;;;5097553;28;20130;-86
2021/07/25 07:04:28;;;;;;;11.02;3.30;;;20.80;99.90;;;;;;5098323;28;20029;-87
2021/07/25 07:06:53;;;;;;;6.72;2.95;;;20.90;99.90;;;;;;5100494;28;20023;-86
2021/07/25 07:09:19;;;;;;;7.43;3.60;;;22.00;99.90;;;;;;5110635;28;20445;-86
2021/07/25 07:11:44;;;;;;;5.65;2.97;;;21.10;99.90;;;;;;5113451;28;20023;-86
2021/07/25 07:14:10;;;;;;;5.90;3.20;;;22.20;99.90;;;;;;5103099;28;20000;-89
2021/07/25 07:16:36;;;;;;;6.22;2.67;;;21.10;99.90;;;;;;5100275;28;20114;-87
2021/07/25 07:19:02;;;;;;;8.52;3.00;;;21.30;99.90;;;;;;5098916;28;20030;-87
2021/07/25 07:21:27;;;;;;;6.20;2.70;;;22.90;99.90;;;;;;5080017;28;20035;-87
2021/07/25 07:23:55;;;;;;;6.70;2.92;;;23.50;99.90;;;;;;5079559;28;20034;-88
2021/07/25 07:26:21;;;;;;;7.57;3.30;;;21.30;99.90;;;;;;5081847;28;20077;-86
2021/07/25 07:28:46;;;;;;;7.80;3.53;;;21.00;99.90;;;;;;5097523;28;20103;-88
2021/07/25 07:31:12;;;;;;;9.50;2.97;;;21.20;99.90;;;;;;5112668;28;20024;-86
2021/07/25 07:33:38;;;;;;;7.45;3.60;;;21.30;99.90;;;;;;5079661;28;20342;-87
2021/07/25 07:36:04;;;;;;;8.40;3.92;;;23.40;99.90;;;;;;5099385;28;20099;-88
2021/07/25 07:38:30;;;;;;;7.28;3.05;;;21.50;99.90;;;;;;5083734;28;20024;-87
2021/07/25 07:40:55;;;;;;;6.55;3.08;;;24.00;99.90;;;;;;5099508;28;20038;-87
2021/07/25 07:43:22;;;;;;;6.38;3.33;;;21.70;99.90;;;;;;5083412;28;20016;-87
2021/07/25 07:45:51;;;;;;;8.02;3.92;;;21.80;99.90;;;;;;5083639;28;20016;-86
2021/07/25 07:48:19;;;;;;;7.20;3.55;;;21.90;99.90;;;;;;5105815;28;20024;-86
2021/07/25 07:50:45;;;;;;;8.18;3.42;;;21.90;99.90;;;;;;5084241;28;20076;-86
2021/07/25 07:53:11;;;;;;;8.63;4.13;;;22.10;99.90;;;;;;5084508;28;20412;-86
2021/07/25 07:55:37;;;;;;;9.45;4.22;;;23.80;99.90;;;;;;5110417;28;20091;-86
2021/07/25 07:58:03;;;;;;;7.28;3.38;;;22.20;99.90;;;;;;5103659;28;20084;-86
2021/07/25 08:00:29;;;;;;;7.55;3.88;;;24.60;99.90;;;;;;5105335;28;20027;-86
2021/07/25 08:02:55;;;;;;;8.55;4.22;;;22.30;99.90;;;;;;5121212;28;20023;-86
2021/07/25 08:05:21;;;;;;;7.20;4.22;;;25.00;99.90;;;;;;5103999;28;20080;-86
2021/07/25 08:07:49;;;;;;;10.30;3.58;;;22.40;99.90;;;;;;5096789;28;20058;-85
2021/07/25 08:10:15;;;;;;;11.18;4.25;;;23.80;99.90;;;;;;5105672;28;20481;-85
2021/07/25 08:12:41;;;;;;;9.50;3.75;;;22.60;99.90;;;;;;5098801;28;20035;-85
2021/07/25 08:15:09;;;;;;;9.90;3.67;;;24.20;99.90;;;;;;5083583;28;20024;-87
2021/07/25 08:17:35;;;;;;;10.17;3.93;;;22.80;99.90;;;;;;5099443;28;20036;-85
2021/07/25 08:20:02;;;;;;;9.48;3.53;;;23.60;99.90;;;;;;5083003;28;20028;-86
2021/07/25 08:22:27;;;;;;;5.93;3.25;;;23.00;99.90;;;;;;5084074;28;20047;-86
2021/07/25 08:24:54;;;;;;;9.27;3.65;;;23.10;99.90;;;;;;5084340;28;20027;-86
2021/07/25 08:27:19;;;;;;;7.85;4.05;;;23.20;99.90;;;;;;5101195;28;20378;-86
2021/07/25 08:29:45;;;;;;;7.50;3.90;;;23.30;99.90;;;;;;5098233;28;20024;-87
2021/07/25 08:32:11;;;;;;;9.10;4.20;;;23.20;99.90;;;;;;5101609;28;20035;-87
2021/07/25 08:34:37;;;;;;;7.68;3.55;;;23.10;99.90;;;;;;5083447;28;20177;-87
2021/07/25 08:37:12;;;;;;;8.52;4.13;;;23.80;99.90;;;;;;5090553;28;20024;-86
2021/07/25 08:40:09;;;;;;;5.57;3.13;;;23.40;99.90;;;;;;5089113;28;20115;-89
2021/07/25 08:42:42;;;;;;;7.50;3.57;;;23.60;99.90;;;;;;5089445;28;20044;-86
2021/07/25 08:45:12;;;;;;;8.57;3.40;;;25.80;99.90;;;;;;5085499;28;20016;-87
2021/07/25 08:47:46;;;;;;;8.48;3.35;;;22.60;99.90;;;;;;5099598;28;20028;-86
2021/07/25 08:50:52;;;;;;;6.65;3.50;;;26.80;99.90;;;;;;5084738;28;20031;-87
2021/07/25 08:53:18;;;;;;;8.93;2.72;;;24.30;99.90;;;;;;5092404;28;20427;-88
2021/07/25 08:55:47;;;;;;;13.18;3.75;;;24.50;99.90;;;;;;5082315;28;20020;-87
2021/07/25 08:58:18;;;;;;;8.20;3.70;;;24.40;99.90;;;;;;5085943;28;20080;-87
2021/07/25 09:00:49;;;;;;;7.00;3.40;;;24.70;99.90;;;;;;5086188;28;20020;-87
2021/07/25 09:03:17;;;;;;;10.13;3.45;;;24.70;99.90;;;;;;5110124;28;20050;-86
2021/07/25 09:06:03;;;;;;;6.93;3.35;;;26.90;99.90;;;;;;5141089;28;20019;-88
2021/07/25 09:08:29;;;;;;;7.53;3.78;;;24.50;99.90;;;;;;5123192;28;20069;-87
2021/07/25 09:10:57;;;;;;;6.25;3.08;;;25.10;99.90;;;;;;5100246;28;20024;-87
2021/07/25 09:13:26;;;;;;;8.68;2.80;;;25.00;99.90;;;;;;5079702;28;20027;-87
2021/07/25 09:15:51;;;;;;;5.40;2.35;;;25.10;99.90;;;;;;5086497;28;20477;-86
2021/07/25 09:18:17;;;;;;;6.68;3.25;;;25.20;99.90;;;;;;5102780;28;20019;-88
2021/07/25 09:20:43;;;;;;;6.55;2.78;;;25.90;99.90;;;;;;5106441;28;20039;-86
2021/07/25 09:23:12;;;;;;;4.15;1.90;;;25.60;99.90;;;;;;5095925;28;20023;-86
2021/07/25 09:25:49;;;;;;;10.30;2.75;;;25.80;99.90;;;;;;5117356;28;20388;-86
2021/07/25 09:28:18;;;;;;;5.55;3.22;;;29.00;99.90;;;;;;5100328;28;20440;-85
2021/07/25 09:30:44;;;;;;;7.05;2.35;;;26.30;98.90;;;;;;5118173;28;20020;-87
2021/07/25 09:33:33;;;;;;;5.95;2.53;;;25.90;98.30;;;;;;5087855;28;20023;-86
2021/07/25 09:36:13;;;;;;;3.47;2.30;;;25.50;99.60;;;;;;5098512;28;20077;-88
2021/07/25 09:38:43;;;;;;;10.18;4.05;;;25.60;99.50;;;;;;5080370;28;20086;-90
2021/07/25 09:41:21;;;;;;;4.50;2.25;;;25.70;99.20;;;;;;5084807;28;20467;-89
2021/07/25 09:43:58;;;;;;;5.65;2.80;;;25.70;99.60;;;;;;5083418;28;20024;-91
2021/07/25 09:46:25;;;;;;;4.80;2.40;;;25.70;99.30;;;;;;5119122;28;20024;-91
2021/07/25 09:48:57;;;;;;;6.20;2.50;;;25.80;99.20;;;;;;5100816;28;20015;-88
2021/07/25 09:51:23;;;;;;;6.22;2.83;;;25.70;99.90;;;;;;5102624;28;20545;-87
2021/07/25 09:54:03;;;;;;;6.88;3.20;;;23.30;99.50;;;;;;5101408;28;20478;-87
2021/07/25 09:56:42;;;;;;;5.05;2.55;;;25.40;99.30;;;;;;5097209;28;20019;-89
2021/07/25 09:59:47;;;;;;;7.22;3.55;;;25.30;99.90;;;;;;5101010;28;20027;-87
2021/07/25 10:02:41;;;;;;;7.72;2.90;;;25.60;99.90;;;;;;5054071;28;20136;-88
2021/07/25 10:05:17;;;;;;;5.60;3.05;;;25.20;99.90;;;;;;5046734;28;20081;-88
2021/07/25 10:07:48;;;;;;;4.78;2.47;;;25.40;99.90;;;;;;5071599;28;20052;-86
2021/07/25 10:13:09;;;;;;;4.07;2.10;;;27.00;99.90;;;;;;5128992;28;20043;-88
2021/07/25 10:15:37;;;;;;;5.22;2.65;;;25.80;97.80;;;;;;5115988;28;20043;-88
2021/07/25 10:18:07;;;;;;;4.90;1.90;;;26.20;98.30;;;;;;5104107;28;20034;-89
2021/07/25 10:20:33;;;;;;;10.88;3.90;;;26.40;97.80;;;;;;5126301;28;20100;-89
2021/07/25 10:23:31;;;;;;;9.43;4.32;;;26.90;97.80;;;;;;5115294;28;20024;-87
2021/07/25 10:26:00;;;;;;;12.50;3.30;;;25.50;93.20;;;;;;5102697;28;20024;-88
2021/07/25 10:28:29;;;;;;;6.03;2.53;;;27.70;94.00;;;;;;5095476;28;20389;-88
2021/07/25 10:30:55;;;;;;;5.65;3.00;;;27.10;93.00;;;;;;5084592;28;20028;-87
2021/07/25 10:33:22;;;;;;;5.07;2.40;;;29.70;92.70;;;;;;5114739;28;20028;-87
2021/07/25 10:35:48;;;;;;;3.92;1.77;;;27.60;90.90;;;;;;5102997;28;20397;-86
2021/07/25 10:38:14;;;;;;;3.53;1.10;;;29.10;90.20;;;;;;5103086;28;20429;-86
2021/07/25 10:40:42;;;;;;;5.18;2.03;;;28.20;91.30;;;;;;5102251;28;20031;-88
2021/07/25 10:43:07;;;;;;;2.35;0.75;;;27.80;86.10;;;;;;5089516;28;20485;-90
2021/07/25 10:46:05;;;;;;;3.10;1.02;;;28.00;83.00;;;;;;5089911;28;20011;-92
2021/07/25 10:48:31;;;;;;;2.35;0.65;;;27.40;74.70;;;;;;5097749;28;20088;-89
2021/07/25 10:51:11;;;;;;;2.90;0.77;;;31.70;78.80;;;;;;5085646;28;20021;-90
2021/07/25 10:53:37;;;;;;;6.53;1.27;;;31.10;77.30;;;;;;5105179;28;20034;-88
2021/07/25 10:56:12;;;;;;;3.70;1.45;;;29.70;77.20;;;;;;5100804;28;20047;-90
2021/07/25 10:58:58;;;;;;;1.92;1.25;;;28.90;77.60;;;;;;5100449;28;20031;-90
2021/07/25 11:01:45;;;;;;;1.60;0.65;;;28.70;76.60;;;;;;5087390;28;20039;-91
2021/07/25 11:04:11;;;;;;;3.83;0.88;;;29.00;75.20;;;;;;5080639;28;20137;-91
2021/07/25 11:06:38;;;;;;;3.40;1.27;;;29.20;75.20;;;;;;5097794;28;20047;-91
2021/07/25 11:10:11;;;;;;;2.10;0.77;;;28.80;74.10;;;;;;5079113;28;20020;-89
2021/07/25 11:12:52;;;;;;;4.47;1.00;;;28.50;72.20;;;;;;5060017;28;20279;-90
2021/07/25 11:15:33;;;;;;;1.83;0.50;;;30.80;76.90;;;;;;5073667;28;20042;-89
2021/07/25 11:18:09;;;;;;;2.28;0.60;;;28.20;75.00;;;;;;5079974;28;20024;-89
2021/07/25 11:20:37;;;;;;;4.97;1.10;;;29.10;71.10;;;;;;5096002;28;20119;-89
2021/07/25 11:23:05;;;;;;;1.65;0.60;;;28.60;69.90;;;;;;5097097;28;20024;-88
2021/07/25 11:25:38;;;;;;;1.40;0.65;;;28.70;69.50;;;;;;5080021;28;20027;-90
2021/07/25 11:28:06;;;;;;;2.42;0.95;;;30.10;68.20;;;;;;5079291;28;20025;-87
2021/07/25 11:30:54;;;;;;;3.03;0.70;;;29.30;67.50;;;;;;5087374;28;20082;-87
2021/07/25 11:33:59;;;;;;;1.33;0.70;;;28.70;68.30;;;;;;5087489;28;20028;-88
2021/07/25 11:36:27;;;;;;;2.08;0.52;;;27.30;65.60;;;;;;5106119;28;20051;-88
2021/07/25 11:39:13;;;;;;;0.85;0.30;;;29.90;70.70;;;;;;5101297;28;20026;-88
2021/07/25 11:41:41;;;;;;;1.35;0.20;;;29.70;64.60;;;;;;5092884;28;20027;-88
2021/07/25 11:44:09;;;;;;;0.45;0.00;;;32.40;68.10;;;;;;5118256;28;20016;-88
2021/07/25 11:46:48;;;;;;;1.40;0.20;;;30.90;63.50;;;;;;5100035;28;20020;-88
2021/07/25 11:49:20;;;;;;;0.30;0.00;;;30.00;60.30;;;;;;5095653;28;20043;-88
2021/07/25 11:52:17;;;;;;;0.50;0.10;;;32.90;62.40;;;;;;5090159;28;20031;-87
2021/07/25 11:54:43;;;;;;;;;;;30.50;58.60;;;;;;5118592;28;20149;-86
2021/07/25 11:57:25;;;;;;;0.57;0.00;;;30.50;57.30;;;;;;5080873;28;19974;-85
2021/07/25 12:00:10;;;;;;;3.50;0.00;;;32.20;59.80;;;;;;5096886;28;20373;-91
2021/07/25 12:02:39;;;;;;;0.32;0.10;;;31.00;56.70;;;;;;5083250;28;20032;-88
2021/07/25 12:05:06;;;;;;;0.43;0.10;;;30.70;56.60;;;;;;5100058;28;20027;-87
2021/07/25 12:07:32;;;;;;;0.93;0.10;;;30.60;58.30;;;;;;5099726;28;20084;-86
2021/07/25 12:09:58;;;;;;;1.33;0.30;;;30.00;57.30;;;;;;5114589;28;20020;-87
2021/07/25 12:12:29;;;;;;;1.67;0.20;;;29.80;60.10;;;;;;5099960;28;20372;-86
2021/07/25 12:14:57;;;;;;;2.30;0.30;;;29.40;60.70;;;;;;5099508;28;20069;-87
2021/07/25 12:17:52;;;;;;;0.32;0.10;;;31.80;63.70;;;;;;5098995;28;20028;-89
2021/07/25 12:20:36;;;;;;;2.17;0.10;;;28.80;62.60;;;;;;5059139;28;20028;-92
2021/07/25 12:23:05;;;;;;;1.58;0.17;;;30.50;62.10;;;;;;5078984;28;20043;-87
2021/07/25 12:25:34;;;;;;;0.95;0.20;;;30.70;64.60;;;;;;5063147;28;20020;-86
2021/07/25 12:28:04;;;;;;;2.90;0.28;;;30.30;56.70;;;;;;5082462;28;20020;-87
2021/07/25 12:30:46;;;;;;;0.50;0.10;;;30.40;56.70;;;;;;5097809;22;20044;-77
2021/07/25 12:33:13;;;;;;;2.58;0.93;;;30.30;57.20;;;;;;5096511;28;20036;-77
2021/07/25 12:35:42;;;;;;;7.67;2.80;;;29.90;60.90;;;;;;5096313;28;20028;-76
2021/07/25 12:38:13;;;;;;;5.50;2.50;;;29.80;66.80;;;;;;5098813;28;20303;-77
2021/07/25 12:41:05;;;;;;;9.50;2.58;;;30.10;69.70;;;;;;5096620;28;20106;-76
2021/07/25 12:43:31;;;;;;;4.35;2.80;;;30.30;65.30;;;;;;5086065;28;20583;-76
2021/07/25 12:45:58;;;;;;;4.78;2.30;;;30.00;66.20;;;;;;5077869;28;20059;-76
2021/07/25 12:48:24;;;;;;;5.50;3.05;;;29.70;69.10;;;;;;5096514;28;20069;-76
2021/07/25 12:51:10;;;;;;;8.68;3.10;;;29.80;68.10;;;;;;5095921;28;20052;-77
2021/07/25 12:54:00;;;;;;;3.05;1.63;;;29.40;68.70;;;;;;5095661;28;20020;-75